createdAt,value
2018-03-24T00:01:00.062Z,1009.25
2018-03-24T00:02:27.113Z,1009.24
2018-03-24T00:03:54.200Z,1009.25
2018-03-24T00:05:21.395Z,1009.24
2018-03-24T00:06:48.509Z,1009.21
2018-03-24T00:08:15.754Z,1009.21
2018-03-24T00:09:42.786Z,1009.16
2018-03-24T00:11:09.978Z,1009.14
2018-03-24T00:12:37.264Z,1009.18
2018-03-24T00:14:04.478Z,1009.14
2018-03-24T00:15:31.603Z,1009.13
2018-03-24T00:16:58.853Z,1009.13
2018-03-24T00:18:26.078Z,1009.13
2018-03-24T00:19:53.229Z,1009.13
2018-03-24T00:21:20.302Z,1009.12
2018-03-24T00:22:47.574Z,1009.13
2018-03-24T00:24:14.596Z,1009.13
2018-03-24T00:25:41.461Z,1009.14
2018-03-24T00:27:08.826Z,1009.17
2018-03-24T00:28:36.028Z,1009.20
2018-03-24T00:30:03.102Z,1009.27
2018-03-24T00:31:30.261Z,1009.28
2018-03-24T00:32:57.372Z,1009.26
2018-03-24T00:34:24.572Z,1009.27
2018-03-24T00:35:51.577Z,1009.25
2018-03-24T00:37:18.695Z,1009.26
2018-03-24T00:38:45.918Z,1009.26
2018-03-24T00:40:13.095Z,1009.26
2018-03-24T00:41:40.157Z,1009.29
2018-03-24T00:43:07.127Z,1009.27
2018-03-24T00:44:34.321Z,1009.24
2018-03-24T00:46:01.545Z,1009.22
2018-03-24T00:47:28.761Z,1009.21
2018-03-24T00:48:56.073Z,1009.21
2018-03-24T00:50:23.299Z,1009.23
2018-03-24T00:51:50.653Z,1009.23
2018-03-24T00:53:17.838Z,1009.23
2018-03-24T00:54:44.903Z,1009.18
2018-03-24T00:56:12.056Z,1009.22
2018-03-24T00:57:39.117Z,1009.20
2018-03-24T00:59:06.300Z,1009.19
2018-03-24T01:00:33.482Z,1009.18
2018-03-24T01:02:00.759Z,1009.17
2018-03-24T01:03:27.979Z,1009.16
2018-03-24T01:04:55.199Z,1009.18
2018-03-24T01:06:22.267Z,1009.17
2018-03-24T01:07:49.484Z,1009.17
2018-03-24T01:09:16.631Z,1009.12
2018-03-24T01:10:43.944Z,1009.12
2018-03-24T01:12:11.066Z,1009.15
2018-03-24T01:13:38.281Z,1009.17
2018-03-24T01:15:05.297Z,1009.18
2018-03-24T01:16:32.495Z,1009.16
2018-03-24T01:17:59.616Z,1009.16
2018-03-24T01:19:26.824Z,1009.19
2018-03-24T01:20:54.066Z,1009.17
2018-03-24T01:22:21.339Z,1009.15
2018-03-24T01:23:48.503Z,1009.12
2018-03-24T01:25:15.776Z,1009.11
2018-03-24T01:26:42.943Z,1009.12
2018-03-24T01:28:10.093Z,1009.12
2018-03-24T01:29:37.274Z,1009.11
2018-03-24T01:31:04.456Z,1009.11
2018-03-24T01:32:31.817Z,1009.10
2018-03-24T01:33:59.136Z,1009.10
2018-03-24T01:35:26.244Z,1009.11
2018-03-24T01:36:53.365Z,1009.12
2018-03-24T01:38:20.497Z,1009.11
2018-03-24T01:39:47.667Z,1009.05
2018-03-24T01:41:14.927Z,1009.03
2018-03-24T01:42:42.035Z,1009.01
2018-03-24T01:44:08.992Z,1009.00
2018-03-24T01:45:36.088Z,1009.01
2018-03-24T01:47:03.227Z,1008.99
2018-03-24T01:48:30.426Z,1009.02
2018-03-24T01:49:57.630Z,1008.98
2018-03-24T01:51:24.648Z,1008.98
2018-03-24T01:52:51.863Z,1008.96
2018-03-24T01:54:19.135Z,1008.93
2018-03-24T01:55:46.246Z,1008.91
2018-03-24T01:57:13.326Z,1008.90
2018-03-24T01:58:40.417Z,1008.90
2018-03-24T02:00:07.712Z,1008.86
2018-03-24T02:01:34.957Z,1008.86
2018-03-24T02:03:02.122Z,1008.87
2018-03-24T02:04:29.336Z,1008.86
2018-03-24T02:05:56.480Z,1008.84
2018-03-24T02:07:23.560Z,1008.84
2018-03-24T02:08:50.994Z,1008.82
2018-03-24T02:10:16.774Z,1008.83
2018-03-24T02:11:43.929Z,1008.84
2018-03-24T02:13:11.035Z,1008.81
2018-03-24T02:14:37.933Z,1008.82
2018-03-24T02:16:05.205Z,1008.80
2018-03-24T02:17:32.612Z,1008.80
2018-03-24T02:18:59.606Z,1008.83
2018-03-24T02:20:26.524Z,1008.85
2018-03-24T02:21:53.742Z,1008.84
2018-03-24T02:23:21.036Z,1008.84
2018-03-24T02:24:48.273Z,1008.87
2018-03-24T02:26:15.302Z,1008.87
2018-03-24T02:27:42.492Z,1008.86
2018-03-24T02:29:09.438Z,1008.83
2018-03-24T02:30:36.668Z,1008.83
2018-03-24T02:32:04.077Z,1008.84
2018-03-24T02:33:31.330Z,1008.83
2018-03-24T02:34:58.541Z,1008.83
2018-03-24T02:36:25.802Z,1008.82
2018-03-24T02:37:53.011Z,1008.83
2018-03-24T02:39:20.390Z,1008.82
2018-03-24T02:40:47.553Z,1008.79
2018-03-24T02:42:14.887Z,1008.78
2018-03-24T02:43:41.904Z,1008.76
2018-03-24T02:45:09.017Z,1008.76
2018-03-24T02:46:36.189Z,1008.75
2018-03-24T02:48:03.512Z,1008.74
2018-03-24T02:49:30.793Z,1008.74
2018-03-24T02:50:57.834Z,1008.71
2018-03-24T02:52:25.071Z,1008.74
2018-03-24T02:53:52.194Z,1008.75
2018-03-24T02:55:19.243Z,1008.79
2018-03-24T02:56:46.374Z,1008.79
2018-03-24T02:58:13.520Z,1008.76
2018-03-24T02:59:40.681Z,1008.73
2018-03-24T03:01:07.874Z,1008.71
2018-03-24T03:02:34.950Z,1008.70
2018-03-24T03:04:02.223Z,1008.70
2018-03-24T03:05:29.641Z,1008.70
2018-03-24T03:06:56.648Z,1008.69
2018-03-24T03:08:23.940Z,1008.68
2018-03-24T03:09:51.206Z,1008.65
2018-03-24T03:11:18.156Z,1008.65
2018-03-24T03:12:45.170Z,1008.66
2018-03-24T03:14:12.265Z,1008.64
2018-03-24T03:15:39.359Z,1008.62
2018-03-24T03:17:06.495Z,1008.61
2018-03-24T03:18:33.722Z,1008.59
2018-03-24T03:20:01.049Z,1008.59
2018-03-24T03:21:28.120Z,1008.62
2018-03-24T03:22:55.402Z,1008.63
2018-03-24T03:24:22.473Z,1008.68
2018-03-24T03:25:49.697Z,1008.69
2018-03-24T03:27:16.899Z,1008.69
2018-03-24T03:28:44.216Z,1008.69
2018-03-24T03:30:11.338Z,1008.71
2018-03-24T03:31:38.582Z,1008.69
2018-03-24T03:33:05.903Z,1008.69
2018-03-24T03:34:33.060Z,1008.71
2018-03-24T03:36:00.374Z,1008.72
2018-03-24T03:37:27.530Z,1008.72
2018-03-24T03:38:54.723Z,1008.72
2018-03-24T03:40:21.879Z,1008.74
2018-03-24T03:41:49.176Z,1008.72
2018-03-24T03:43:16.298Z,1008.73
2018-03-24T03:44:43.563Z,1008.73
2018-03-24T03:46:10.685Z,1008.73
2018-03-24T03:47:37.931Z,1008.72
2018-03-24T03:49:05.176Z,1008.73
2018-03-24T03:50:32.376Z,1008.73
2018-03-24T03:51:59.718Z,1008.71
2018-03-24T03:53:26.779Z,1008.72
2018-03-24T03:54:54.123Z,1008.72
2018-03-24T03:56:21.483Z,1008.75
2018-03-24T03:57:48.582Z,1008.74
2018-03-24T03:59:15.645Z,1008.75
2018-03-24T04:00:42.862Z,1008.73
2018-03-24T04:02:10.075Z,1008.73
2018-03-24T04:03:37.123Z,1008.71
2018-03-24T04:05:04.337Z,1008.73
2018-03-24T04:06:31.544Z,1008.74
2018-03-24T04:07:58.755Z,1008.74
2018-03-24T04:09:25.866Z,1008.72
2018-03-24T04:10:53.188Z,1008.72
2018-03-24T04:12:20.139Z,1008.71
2018-03-24T04:13:47.299Z,1008.73
2018-03-24T04:15:14.401Z,1008.76
2018-03-24T04:16:41.570Z,1008.77
2018-03-24T04:18:08.918Z,1008.76
2018-03-24T04:19:36.128Z,1008.77
2018-03-24T04:21:03.324Z,1008.76
2018-03-24T04:22:30.634Z,1008.74
2018-03-24T04:23:57.762Z,1008.73
2018-03-24T04:25:24.907Z,1008.76
2018-03-24T04:26:52.084Z,1008.77
2018-03-24T04:28:19.363Z,1008.77
2018-03-24T04:29:46.648Z,1008.75
2018-03-24T04:31:13.897Z,1008.76
2018-03-24T04:32:40.791Z,1008.76
2018-03-24T04:34:07.996Z,1008.77
2018-03-24T04:35:35.308Z,1008.76
2018-03-24T04:37:02.430Z,1008.78
2018-03-24T04:38:29.699Z,1008.79
2018-03-24T04:39:56.830Z,1008.82
2018-03-24T04:41:24.189Z,1008.80
2018-03-24T04:42:51.411Z,1008.79
2018-03-24T04:44:18.607Z,1008.75
2018-03-24T04:45:45.938Z,1008.74
2018-03-24T04:47:12.993Z,1008.76
2018-03-24T04:48:39.944Z,1008.77
2018-03-24T04:50:07.196Z,1008.79
2018-03-24T04:51:34.429Z,1008.85
2018-03-24T04:53:01.651Z,1008.89
2018-03-24T04:54:28.979Z,1008.91
2018-03-24T04:55:56.204Z,1008.90
2018-03-24T04:57:23.497Z,1008.88
2018-03-24T04:58:50.759Z,1008.88
2018-03-24T05:00:17.849Z,1008.86
2018-03-24T05:01:44.901Z,1008.88
2018-03-24T05:03:11.974Z,1008.87
2018-03-24T05:04:38.918Z,1008.90
2018-03-24T05:06:06.196Z,1008.91
2018-03-24T05:07:33.381Z,1008.94
2018-03-24T05:09:00.643Z,1008.93
2018-03-24T05:10:27.715Z,1008.93
2018-03-24T05:11:54.887Z,1008.95
2018-03-24T05:13:22.032Z,1008.96
2018-03-24T05:14:49.255Z,1008.97
2018-03-24T05:16:16.429Z,1009.00
2018-03-24T05:17:43.621Z,1009.01
2018-03-24T05:19:10.833Z,1008.98
2018-03-24T05:20:38.076Z,1008.99
2018-03-24T05:22:05.288Z,1008.94
2018-03-24T05:23:32.471Z,1008.96
2018-03-24T05:24:59.682Z,1008.99
2018-03-24T05:26:26.934Z,1009.00
2018-03-24T05:27:54.087Z,1009.03
2018-03-24T05:29:21.238Z,1009.01
2018-03-24T05:30:48.269Z,1009.03
2018-03-24T05:32:15.528Z,1009.05
2018-03-24T05:33:42.679Z,1009.05
2018-03-24T05:35:09.847Z,1009.06
2018-03-24T05:36:36.919Z,1009.08
2018-03-24T05:38:04.052Z,1009.09
2018-03-24T05:39:31.071Z,1009.10
2018-03-24T05:40:58.220Z,1009.11
2018-03-24T05:42:25.345Z,1009.13
2018-03-24T05:43:52.313Z,1009.19
2018-03-24T05:45:19.521Z,1009.21
2018-03-24T05:46:46.558Z,1009.21
2018-03-24T05:48:13.643Z,1009.23
2018-03-24T05:49:40.855Z,1009.23
2018-03-24T05:51:07.971Z,1009.23
2018-03-24T05:52:35.214Z,1009.24
2018-03-24T05:54:02.351Z,1009.24
2018-03-24T05:55:29.659Z,1009.24
2018-03-24T05:56:56.907Z,1009.25
2018-03-24T05:58:23.976Z,1009.25
2018-03-24T05:59:51.041Z,1009.27
2018-03-24T06:01:18.111Z,1009.30
2018-03-24T06:02:45.298Z,1009.30
2018-03-24T06:04:12.424Z,1009.34
2018-03-24T06:05:39.561Z,1009.35
2018-03-24T06:07:06.789Z,1009.35
2018-03-24T06:08:34.000Z,1009.38
2018-03-24T06:10:01.048Z,1009.39
2018-03-24T06:11:28.214Z,1009.37
2018-03-24T06:12:55.492Z,1009.39
2018-03-24T06:14:22.631Z,1009.39
2018-03-24T06:15:49.676Z,1009.41
2018-03-24T06:17:16.770Z,1009.44
2018-03-24T06:18:43.875Z,1009.42
2018-03-24T06:20:11.098Z,1009.44
2018-03-24T06:21:38.470Z,1009.45
2018-03-24T06:23:05.529Z,1009.43
2018-03-24T06:24:32.747Z,1009.43
2018-03-24T06:25:59.937Z,1009.45
2018-03-24T06:27:27.223Z,1009.49
2018-03-24T06:28:54.257Z,1009.50
2018-03-24T06:30:21.443Z,1009.50
2018-03-24T06:31:48.659Z,1009.49
2018-03-24T06:33:15.862Z,1009.48
2018-03-24T06:34:42.920Z,1009.47
2018-03-24T06:36:10.093Z,1009.45
2018-03-24T06:37:37.202Z,1009.45
2018-03-24T06:39:04.546Z,1009.47
2018-03-24T06:40:31.744Z,1009.46
2018-03-24T06:41:59.065Z,1009.44
2018-03-24T06:43:26.093Z,1009.41
2018-03-24T06:44:53.244Z,1009.40
2018-03-24T06:46:20.144Z,1009.39
2018-03-24T06:47:47.293Z,1009.40
2018-03-24T06:49:14.547Z,1009.40
2018-03-24T06:50:41.556Z,1009.41
2018-03-24T06:52:08.954Z,1009.45
2018-03-24T06:53:36.175Z,1009.47
2018-03-24T06:55:03.319Z,1009.47
2018-03-24T06:56:30.535Z,1009.47
2018-03-24T06:57:57.771Z,1009.48
2018-03-24T06:59:24.941Z,1009.48
2018-03-24T07:00:52.214Z,1009.50
2018-03-24T07:02:19.332Z,1009.52
2018-03-24T07:03:46.394Z,1009.54
2018-03-24T07:05:13.609Z,1009.57
2018-03-24T07:06:40.853Z,1009.56
2018-03-24T07:08:08.049Z,1009.56
2018-03-24T07:09:35.261Z,1009.56
2018-03-24T07:11:02.565Z,1009.60
2018-03-24T07:12:29.835Z,1009.63
2018-03-24T07:13:56.946Z,1009.62
2018-03-24T07:15:24.098Z,1009.63
2018-03-24T07:16:51.245Z,1009.64
2018-03-24T07:18:18.376Z,1009.65
2018-03-24T07:19:45.614Z,1009.66
2018-03-24T07:21:12.719Z,1009.66
2018-03-24T07:22:39.882Z,1009.65
2018-03-24T07:24:07.046Z,1009.65
2018-03-24T07:25:34.152Z,1009.67
2018-03-24T07:27:01.428Z,1009.64
2018-03-24T07:28:28.616Z,1009.63
2018-03-24T07:29:55.778Z,1009.63
2018-03-24T07:31:22.894Z,1009.61
2018-03-24T07:32:50.223Z,1009.62
2018-03-24T07:34:17.371Z,1009.64
2018-03-24T07:35:44.649Z,1009.63
2018-03-24T07:37:11.612Z,1009.65
2018-03-24T07:38:38.819Z,1009.65
2018-03-24T07:40:05.936Z,1009.66
2018-03-24T07:41:33.048Z,1009.66
2018-03-24T07:43:00.180Z,1009.66
2018-03-24T07:44:27.435Z,1009.67
2018-03-24T07:45:54.620Z,1009.67
2018-03-24T07:47:21.844Z,1009.67
2018-03-24T07:48:48.861Z,1009.66
2018-03-24T07:50:16.126Z,1009.69
2018-03-24T07:51:43.427Z,1009.66
2018-03-24T07:53:10.481Z,1009.67
2018-03-24T07:54:37.569Z,1009.67
2018-03-24T07:56:04.698Z,1009.69
2018-03-24T07:57:31.899Z,1009.73
2018-03-24T07:58:59.188Z,1009.72
2018-03-24T08:00:26.336Z,1009.75
2018-03-24T08:01:53.657Z,1009.76
2018-03-24T08:03:20.744Z,1009.76
2018-03-24T08:04:47.970Z,1009.75
2018-03-24T08:06:15.197Z,1009.78
2018-03-24T08:07:42.420Z,1009.77
2018-03-24T08:09:09.561Z,1009.78
2018-03-24T08:10:36.781Z,1009.76
2018-03-24T08:12:04.005Z,1009.77
2018-03-24T08:13:31.259Z,1009.77
2018-03-24T08:14:58.540Z,1009.80
2018-03-24T08:16:25.827Z,1009.77
2018-03-24T08:17:53.033Z,1009.78
2018-03-24T08:19:20.447Z,1009.76
2018-03-24T08:20:47.515Z,1009.76
2018-03-24T08:22:14.690Z,1009.76
2018-03-24T08:23:41.950Z,1009.77
2018-03-24T08:25:09.075Z,1009.80
2018-03-24T08:26:36.242Z,1009.80
2018-03-24T08:28:03.435Z,1009.81
2018-03-24T08:29:30.664Z,1009.84
2018-03-24T08:30:57.925Z,1009.81
2018-03-24T08:32:25.211Z,1009.80
2018-03-24T08:33:52.182Z,1009.81
2018-03-24T08:35:19.687Z,1009.81
2018-03-24T08:36:46.888Z,1009.79
2018-03-24T08:38:14.950Z,1009.80
2018-03-24T08:39:40.990Z,1009.82
2018-03-24T08:41:08.160Z,1009.82
2018-03-24T08:42:35.410Z,1009.84
2018-03-24T08:44:02.782Z,1009.85
2018-03-24T08:45:30.088Z,1009.84
2018-03-24T08:46:57.139Z,1009.85
2018-03-24T08:48:24.444Z,1009.84
2018-03-24T08:49:51.749Z,1009.79
2018-03-24T08:51:18.828Z,1009.82
2018-03-24T08:52:46.195Z,1009.82
2018-03-24T08:54:13.392Z,1009.80
2018-03-24T08:55:40.578Z,1009.82
2018-03-24T08:57:07.860Z,1009.80
2018-03-24T08:58:34.960Z,1009.77
2018-03-24T09:00:02.277Z,1009.75
2018-03-24T09:01:29.598Z,1009.73
2018-03-24T09:02:56.925Z,1009.73
2018-03-24T09:04:24.208Z,1009.73
2018-03-24T09:05:51.516Z,1009.71
2018-03-24T09:07:18.829Z,1009.71
2018-03-24T09:08:46.179Z,1009.69
2018-03-24T09:10:13.279Z,1009.68
2018-03-24T09:11:40.360Z,1009.68
2018-03-24T09:13:07.663Z,1009.65
2018-03-24T09:14:34.982Z,1009.68
2018-03-24T09:16:02.287Z,1009.68
2018-03-24T09:17:29.579Z,1009.67
2018-03-24T09:18:56.668Z,1009.64
2018-03-24T09:20:23.906Z,1009.63
2018-03-24T09:21:51.076Z,1009.64
2018-03-24T09:23:18.445Z,1009.61
2018-03-24T09:24:45.625Z,1009.61
2018-03-24T09:26:12.906Z,1009.62
2018-03-24T09:27:40.013Z,1009.58
2018-03-24T09:29:07.356Z,1009.62
2018-03-24T09:30:34.505Z,1009.59
2018-03-24T09:32:01.849Z,1009.58
2018-03-24T09:33:29.047Z,1009.55
2018-03-24T09:34:56.309Z,1009.57
2018-03-24T09:36:23.567Z,1009.56
2018-03-24T09:37:50.818Z,1009.56
2018-03-24T09:39:18.047Z,1009.56
2018-03-24T09:40:45.350Z,1009.54
2018-03-24T09:42:12.351Z,1009.56
2018-03-24T09:43:39.147Z,1009.53
2018-03-24T09:45:06.382Z,1009.54
2018-03-24T09:46:33.661Z,1009.56
2018-03-24T09:48:00.974Z,1009.57
2018-03-24T09:49:28.230Z,1009.54
2018-03-24T09:50:55.255Z,1009.55
2018-03-24T09:52:22.460Z,1009.58
2018-03-24T09:53:49.546Z,1009.54
2018-03-24T09:55:16.832Z,1009.58
2018-03-24T09:56:44.119Z,1009.51
2018-03-24T09:58:11.331Z,1009.54
2018-03-24T09:59:38.666Z,1009.53
2018-03-24T10:01:05.952Z,1009.52
2018-03-24T10:02:33.270Z,1009.48
2018-03-24T10:04:00.534Z,1009.48
2018-03-24T10:05:27.782Z,1009.48
2018-03-24T10:06:55.188Z,1009.49
2018-03-24T10:08:22.551Z,1009.46
2018-03-24T10:09:49.959Z,1009.47
2018-03-24T10:11:17.410Z,1009.49
2018-03-24T10:12:44.627Z,1009.48
2018-03-24T10:14:11.937Z,1009.48
2018-03-24T10:15:39.132Z,1009.46
2018-03-24T10:17:06.329Z,1009.44
2018-03-24T10:18:33.517Z,1009.45
2018-03-24T10:20:00.733Z,1009.45
2018-03-24T10:21:28.111Z,1009.42
2018-03-24T10:22:55.348Z,1009.40
2018-03-24T10:24:22.628Z,1009.37
2018-03-24T10:25:50.017Z,1009.37
2018-03-24T10:27:17.155Z,1009.35
2018-03-24T10:28:44.521Z,1009.35
2018-03-24T10:30:11.859Z,1009.39
2018-03-24T10:31:38.902Z,1009.37
2018-03-24T10:33:06.074Z,1009.37
2018-03-24T10:34:33.257Z,1009.39
2018-03-24T10:36:00.534Z,1009.38
2018-03-24T10:37:27.895Z,1009.34
2018-03-24T10:38:55.134Z,1009.34
2018-03-24T10:40:22.291Z,1009.33
2018-03-24T10:41:49.640Z,1009.34
2018-03-24T10:43:17.022Z,1009.34
2018-03-24T10:44:44.052Z,1009.33
2018-03-24T10:46:11.476Z,1009.34
2018-03-24T10:47:38.775Z,1009.33
2018-03-24T10:49:06.304Z,1009.34
2018-03-24T10:50:33.675Z,1009.30
2018-03-24T10:52:00.948Z,1009.32
2018-03-24T10:53:28.207Z,1009.28
2018-03-24T10:54:55.666Z,1009.32
2018-03-24T10:56:22.981Z,1009.31
2018-03-24T10:57:50.340Z,1009.29
2018-03-24T10:59:17.783Z,1009.30
2018-03-24T11:00:44.842Z,1009.26
2018-03-24T11:02:12.246Z,1009.27
2018-03-24T11:03:39.292Z,1009.24
2018-03-24T11:05:06.623Z,1009.24
2018-03-24T11:06:33.838Z,1009.24
2018-03-24T11:08:01.246Z,1009.20
2018-03-24T11:09:28.543Z,1009.19
2018-03-24T11:10:55.804Z,1009.17
2018-03-24T11:12:23.110Z,1009.14
2018-03-24T11:13:50.329Z,1009.13
2018-03-24T11:15:17.673Z,1009.12
2018-03-24T11:16:44.997Z,1009.13
2018-03-24T11:18:12.252Z,1009.12
2018-03-24T11:19:39.427Z,1009.09
2018-03-24T11:21:06.573Z,1009.08
2018-03-24T11:22:33.820Z,1009.08
2018-03-24T11:24:01.100Z,1009.06
2018-03-24T11:25:28.350Z,1009.07
2018-03-24T11:26:55.808Z,1009.06
2018-03-24T11:28:22.791Z,1009.04
2018-03-24T11:29:50.118Z,1009.06
2018-03-24T11:31:17.496Z,1009.07
2018-03-24T11:32:44.820Z,1009.07
2018-03-24T11:34:12.138Z,1009.05
2018-03-24T11:35:39.412Z,1009.03
2018-03-24T11:37:06.708Z,1008.99
2018-03-24T11:38:34.003Z,1008.97
2018-03-24T11:40:01.108Z,1009.00
2018-03-24T11:41:28.485Z,1008.97
2018-03-24T11:42:55.767Z,1008.97
2018-03-24T11:44:23.191Z,1008.98
2018-03-24T11:45:50.468Z,1008.98
2018-03-24T11:47:17.953Z,1009.01
2018-03-24T11:48:45.211Z,1008.98
2018-03-24T11:50:12.533Z,1008.97
2018-03-24T11:51:39.688Z,1008.94
2018-03-24T11:53:06.976Z,1008.91
2018-03-24T11:54:34.318Z,1008.88
2018-03-24T11:56:01.594Z,1008.85
2018-03-24T11:57:28.883Z,1008.86
2018-03-24T11:58:56.393Z,1008.86
2018-03-24T12:00:23.555Z,1008.84
2018-03-24T12:01:50.820Z,1008.84
2018-03-24T12:03:18.237Z,1008.83
2018-03-24T12:04:45.533Z,1008.80
2018-03-24T12:06:12.884Z,1008.80
2018-03-24T12:07:40.037Z,1008.78
2018-03-24T12:09:07.523Z,1008.79
2018-03-24T12:10:34.863Z,1008.80
2018-03-24T12:12:02.314Z,1008.83
2018-03-24T12:13:29.521Z,1008.81
2018-03-24T12:14:56.898Z,1008.77
2018-03-24T12:16:24.352Z,1008.78
2018-03-24T12:17:51.626Z,1008.75
2018-03-24T12:19:19.097Z,1008.71
2018-03-24T12:20:46.366Z,1008.73
2018-03-24T12:22:13.697Z,1008.74
2018-03-24T12:23:40.897Z,1008.72
2018-03-24T12:25:08.206Z,1008.67
2018-03-24T12:26:35.696Z,1008.67
2018-03-24T12:28:03.229Z,1008.67
2018-03-24T12:29:30.365Z,1008.68
2018-03-24T12:30:57.664Z,1008.69
2018-03-24T12:32:25.155Z,1008.71
2018-03-24T12:33:52.424Z,1008.69
2018-03-24T12:35:19.698Z,1008.72
2018-03-24T12:36:46.950Z,1008.68
2018-03-24T12:38:14.245Z,1008.73
2018-03-24T12:39:41.372Z,1008.70
2018-03-24T12:41:08.724Z,1008.69
2018-03-24T12:42:36.038Z,1008.74
2018-03-24T12:44:03.420Z,1008.74
2018-03-24T12:45:30.784Z,1008.77
2018-03-24T12:46:58.236Z,1008.76
2018-03-24T12:48:25.540Z,1008.75
2018-03-24T12:49:53.096Z,1008.77
2018-03-24T12:51:20.209Z,1008.75
2018-03-24T12:52:47.504Z,1008.73
2018-03-24T12:54:14.676Z,1008.77
2018-03-24T12:55:41.973Z,1008.77
2018-03-24T12:57:09.308Z,1008.77
2018-03-24T12:58:36.456Z,1008.74
2018-03-24T13:00:03.824Z,1008.73
2018-03-24T13:01:31.086Z,1008.75
2018-03-24T13:02:58.585Z,1008.77
2018-03-24T13:04:25.951Z,1008.79
2018-03-24T13:05:53.213Z,1008.77
2018-03-24T13:07:20.581Z,1008.76
2018-03-24T13:08:47.988Z,1008.77
2018-03-24T13:10:15.417Z,1008.79
2018-03-24T13:11:42.873Z,1008.77
2018-03-24T13:13:10.162Z,1008.79
2018-03-24T13:14:37.578Z,1008.77
2018-03-24T13:16:05.005Z,1008.80
2018-03-24T13:17:32.298Z,1008.80
2018-03-24T13:18:59.696Z,1008.78
2018-03-24T13:20:27.083Z,1008.78
2018-03-24T13:21:54.480Z,1008.79
2018-03-24T13:23:21.927Z,1008.76
2018-03-24T13:24:49.293Z,1008.76
2018-03-24T13:26:16.526Z,1008.75
2018-03-24T13:27:43.955Z,1008.75
2018-03-24T13:29:10.990Z,1008.76
2018-03-24T13:30:38.225Z,1008.76
2018-03-24T13:32:05.482Z,1008.75
2018-03-24T13:33:32.629Z,1008.76
2018-03-24T13:35:00.022Z,1008.77
2018-03-24T13:36:27.269Z,1008.75
2018-03-24T13:37:54.670Z,1008.77
2018-03-24T13:39:22.025Z,1008.76
2018-03-24T13:40:49.262Z,1008.75
2018-03-24T13:42:16.506Z,1008.74
2018-03-24T13:43:43.934Z,1008.74
2018-03-24T13:45:11.231Z,1008.75
2018-03-24T13:46:38.511Z,1008.76
2018-03-24T13:48:05.805Z,1008.76
2018-03-24T13:49:33.194Z,1008.78
2018-03-24T13:51:00.499Z,1008.78
2018-03-24T13:52:27.679Z,1008.77
2018-03-24T13:53:55.161Z,1008.76
2018-03-24T13:55:22.386Z,1008.79
2018-03-24T13:56:49.842Z,1008.78
2018-03-24T13:58:17.094Z,1008.84
2018-03-24T13:59:44.420Z,1008.82
2018-03-24T14:01:11.764Z,1008.85
2018-03-24T14:02:39.283Z,1008.79
2018-03-24T14:04:06.457Z,1008.76
2018-03-24T14:05:33.778Z,1008.78
2018-03-24T14:07:01.077Z,1008.76
2018-03-24T14:08:28.414Z,1008.75
2018-03-24T14:09:55.587Z,1008.76
2018-03-24T14:11:22.847Z,1008.78
2018-03-24T14:12:50.046Z,1008.74
2018-03-24T14:14:17.428Z,1008.73
2018-03-24T14:15:44.812Z,1008.75
2018-03-24T14:17:12.172Z,1008.77
2018-03-24T14:18:39.385Z,1008.76
2018-03-24T14:20:06.788Z,1008.77
2018-03-24T14:21:34.072Z,1008.79
2018-03-24T14:23:01.460Z,1008.78
2018-03-24T14:24:28.826Z,1008.80
2018-03-24T14:25:56.151Z,1008.80
2018-03-24T14:27:23.524Z,1008.77
2018-03-24T14:28:50.698Z,1008.78
2018-03-24T14:30:17.935Z,1008.78
2018-03-24T14:31:45.099Z,1008.80
2018-03-24T14:33:12.422Z,1008.80
2018-03-24T14:34:39.586Z,1008.81
2018-03-24T14:36:07.000Z,1008.77
2018-03-24T14:37:34.355Z,1008.81
2018-03-24T14:39:01.728Z,1008.80
2018-03-24T14:40:29.093Z,1008.80
2018-03-24T14:41:56.443Z,1008.79
2018-03-24T14:43:23.429Z,1008.80
2018-03-24T14:44:50.668Z,1008.78
2018-03-24T14:46:17.982Z,1008.80
2018-03-24T14:47:45.325Z,1008.81
2018-03-24T14:49:12.753Z,1008.80
2018-03-24T14:50:39.917Z,1008.80
2018-03-24T14:52:07.247Z,1008.80
2018-03-24T14:53:34.575Z,1008.79
2018-03-24T14:55:01.914Z,1008.80
2018-03-24T14:56:29.276Z,1008.79
2018-03-24T14:57:56.925Z,1008.79
2018-03-24T14:59:24.468Z,1008.80
2018-03-24T15:00:51.713Z,1008.81
2018-03-24T15:02:19.096Z,1008.81
2018-03-24T15:03:46.300Z,1008.84
2018-03-24T15:05:13.668Z,1008.84
2018-03-24T15:06:40.929Z,1008.87
2018-03-24T15:08:08.231Z,1008.83
2018-03-24T15:09:35.586Z,1008.85
2018-03-24T15:11:03.019Z,1008.86
2018-03-24T15:12:30.347Z,1008.85
2018-03-24T15:13:57.460Z,1008.85
2018-03-24T15:15:24.873Z,1008.84
2018-03-24T15:16:52.239Z,1008.84
2018-03-24T15:18:19.522Z,1008.82
2018-03-24T15:19:46.789Z,1008.86
2018-03-24T15:21:14.122Z,1008.84
2018-03-24T15:22:41.402Z,1008.85
2018-03-24T15:24:08.732Z,1008.83
2018-03-24T15:25:35.946Z,1008.83
2018-03-24T15:27:03.267Z,1008.82
2018-03-24T15:28:30.599Z,1008.84
2018-03-24T15:29:57.921Z,1008.86
2018-03-24T15:31:25.209Z,1008.85
2018-03-24T15:32:52.601Z,1008.84
2018-03-24T15:34:19.934Z,1008.85
2018-03-24T15:35:47.271Z,1008.86
2018-03-24T15:37:14.572Z,1008.88
2018-03-24T15:38:41.690Z,1008.83
2018-03-24T15:40:09.203Z,1008.84
2018-03-24T15:41:36.597Z,1008.87
2018-03-24T15:43:03.935Z,1008.84
2018-03-24T15:44:31.248Z,1008.87
2018-03-24T15:45:58.490Z,1008.85
2018-03-24T15:47:25.925Z,1008.86
2018-03-24T15:48:53.293Z,1008.85
2018-03-24T15:50:20.523Z,1008.85
2018-03-24T15:51:47.970Z,1008.88
2018-03-24T15:53:14.919Z,1008.89
2018-03-24T15:54:42.162Z,1008.89
2018-03-24T15:56:09.356Z,1008.93
2018-03-24T15:57:36.682Z,1008.90
2018-03-24T15:59:04.018Z,1008.90
2018-03-24T16:00:31.429Z,1008.90
2018-03-24T16:01:58.799Z,1008.91
2018-03-24T16:03:26.027Z,1008.92
2018-03-24T16:04:53.203Z,1008.95
2018-03-24T16:06:20.648Z,1008.98
2018-03-24T16:07:48.030Z,1008.96
2018-03-24T16:09:15.335Z,1008.97
2018-03-24T16:10:42.683Z,1008.97
2018-03-24T16:12:09.847Z,1008.98
2018-03-24T16:13:37.169Z,1008.99
2018-03-24T16:15:04.054Z,1009.01
2018-03-24T16:16:31.402Z,1009.03
2018-03-24T16:17:58.642Z,1009.06
2018-03-24T16:19:26.003Z,1009.08
2018-03-24T16:20:53.208Z,1009.11
2018-03-24T16:22:20.602Z,1009.11
2018-03-24T16:23:47.934Z,1009.13
2018-03-24T16:25:15.182Z,1009.13
2018-03-24T16:26:42.456Z,1009.15
2018-03-24T16:28:09.570Z,1009.15
2018-03-24T16:29:37.939Z,1009.19
2018-03-24T16:31:04.179Z,1009.21
2018-03-24T16:32:31.549Z,1009.22
2018-03-24T16:33:58.903Z,1009.25
2018-03-24T16:35:26.192Z,1009.26
2018-03-24T16:36:53.457Z,1009.25
2018-03-24T16:38:20.736Z,1009.25
2018-03-24T16:39:48.047Z,1009.28
2018-03-24T16:41:15.295Z,1009.28
2018-03-24T16:42:42.525Z,1009.30
2018-03-24T16:44:09.717Z,1009.31
2018-03-24T16:45:36.839Z,1009.30
2018-03-24T16:47:04.188Z,1009.32
2018-03-24T16:48:31.479Z,1009.34
2018-03-24T16:49:58.893Z,1009.35
2018-03-24T16:51:26.224Z,1009.36
2018-03-24T16:52:53.447Z,1009.40
2018-03-24T16:54:20.727Z,1009.39
2018-03-24T16:55:48.085Z,1009.38
2018-03-24T16:57:15.157Z,1009.41
2018-03-24T16:58:41.974Z,1009.41
2018-03-24T17:00:08.897Z,1009.42
2018-03-24T17:01:36.066Z,1009.44
2018-03-24T17:03:03.182Z,1009.44
2018-03-24T17:04:30.454Z,1009.44
2018-03-24T17:05:57.687Z,1009.46
2018-03-24T17:07:24.974Z,1009.48
2018-03-24T17:08:52.128Z,1009.45
2018-03-24T17:10:19.120Z,1009.48
2018-03-24T17:11:46.387Z,1009.48
2018-03-24T17:13:13.630Z,1009.47
2018-03-24T17:14:40.839Z,1009.48
2018-03-24T17:16:07.958Z,1009.51
2018-03-24T17:17:35.299Z,1009.53
2018-03-24T17:19:02.542Z,1009.53
2018-03-24T17:20:29.798Z,1009.55
2018-03-24T17:21:56.888Z,1009.57
2018-03-24T17:23:24.174Z,1009.58
2018-03-24T17:24:51.392Z,1009.57
2018-03-24T17:26:18.522Z,1009.59
2018-03-24T17:27:45.783Z,1009.63
2018-03-24T17:29:12.994Z,1009.64
2018-03-24T17:30:40.289Z,1009.65
2018-03-24T17:32:07.393Z,1009.65
2018-03-24T17:33:34.663Z,1009.69
2018-03-24T17:35:01.848Z,1009.68